createdAt,value
2023-01-11T00:00:27.535Z,8.10
2023-01-11T00:02:58.699Z,8.10
2023-01-11T00:05:25.672Z,8.20
2023-01-11T00:07:52.655Z,8.10
2023-01-11T00:10:20.151Z,8.10
2023-01-11T00:12:47.421Z,8.10
2023-01-11T00:15:14.982Z,8.10
2023-01-11T00:17:41.838Z,8.10
2023-01-11T00:20:10.306Z,8.10
2023-01-11T00:22:37.130Z,8.20
2023-01-11T00:25:04.295Z,8.20
2023-01-11T00:27:31.068Z,8.20
2023-01-11T00:29:57.689Z,8.20
2023-01-11T00:32:24.540Z,8.20
2023-01-11T00:34:51.198Z,8.20
2023-01-11T00:37:17.805Z,8.20
2023-01-11T00:39:44.427Z,8.20
2023-01-11T00:42:30.625Z,8.10
2023-01-11T00:45:15.919Z,8.10
2023-01-11T00:47:58.011Z,8.10
2023-01-11T00:50:27.323Z,8.20
2023-01-11T00:52:53.920Z,8.10
2023-01-11T00:55:20.839Z,8.10
2023-01-11T00:57:47.509Z,8.20
2023-01-11T01:00:14.355Z,8.10
2023-01-11T01:02:41.112Z,8.10
2023-01-11T01:05:08.095Z,8.20
2023-01-11T01:07:34.743Z,8.20
2023-01-11T01:10:01.373Z,8.20
2023-01-11T01:12:46.829Z,8.20
2023-01-11T01:15:13.471Z,8.20
2023-01-11T01:17:40.111Z,8.20
2023-01-11T01:20:07.430Z,8.20
2023-01-11T01:22:34.319Z,8.10
2023-01-11T01:25:00.971Z,8.10
2023-01-11T01:27:27.581Z,8.10
2023-01-11T01:29:54.217Z,8.20
2023-01-11T01:32:20.829Z,8.20
2023-01-11T01:34:47.575Z,8.20
2023-01-11T01:37:15.848Z,8.20
2023-01-11T01:39:42.610Z,8.20
2023-01-11T01:42:16.812Z,8.20
2023-01-11T01:45:23.822Z,8.20
2023-01-11T01:48:02.708Z,8.20
2023-01-11T01:50:42.748Z,8.30
2023-01-11T01:53:20.985Z,8.30
2023-01-11T01:55:57.381Z,8.40
2023-01-11T01:58:30.359Z,8.40
2023-01-11T02:00:57.001Z,8.50
2023-01-11T02:03:26.862Z,8.50
2023-01-11T02:05:54.077Z,8.50
2023-01-11T02:08:32.715Z,8.60
2023-01-11T02:10:59.614Z,8.60
2023-01-11T02:13:27.063Z,8.60
2023-01-11T02:16:07.643Z,8.70
2023-01-11T02:18:36.559Z,8.70
2023-01-11T02:21:17.199Z,8.70
2023-01-11T02:24:29.376Z,8.80
2023-01-11T02:27:23.864Z,8.80
2023-01-11T02:30:06.429Z,8.90
2023-01-11T02:33:02.924Z,8.90
2023-01-11T02:35:43.112Z,8.90
2023-01-11T02:38:33.296Z,9.00
2023-01-11T02:41:52.372Z,9.00
2023-01-11T02:44:46.034Z,9.00
2023-01-11T02:47:20.633Z,9.00
2023-01-11T02:50:14.142Z,9.00
2023-01-11T02:52:46.892Z,9.00
2023-01-11T02:55:16.726Z,9.00
2023-01-11T02:57:45.223Z,9.10
2023-01-11T03:00:13.007Z,9.10
2023-01-11T03:02:39.670Z,9.10
2023-01-11T03:05:12.453Z,9.10
2023-01-11T03:08:08.117Z,9.10
2023-01-11T03:10:44.561Z,9.20
2023-01-11T03:13:26.418Z,9.20
2023-01-11T03:16:21.091Z,9.20
2023-01-11T03:19:19.527Z,9.20
2023-01-11T03:22:02.339Z,9.30
2023-01-11T03:24:32.991Z,9.30
2023-01-11T03:27:21.852Z,9.30
2023-01-11T03:29:56.767Z,9.40
2023-01-11T03:32:54.479Z,9.40
2023-01-11T03:35:27.317Z,9.40
2023-01-11T03:38:08.942Z,9.40
2023-01-11T03:40:40.888Z,9.40
2023-01-11T03:43:11.276Z,9.50
2023-01-11T03:45:54.898Z,9.50
2023-01-11T03:48:36.682Z,9.50
2023-01-11T03:51:06.079Z,9.50
2023-01-11T03:53:36.760Z,9.50
2023-01-11T03:56:07.071Z,9.50
2023-01-11T03:58:33.851Z,9.60
2023-01-11T04:01:01.444Z,9.50
2023-01-11T04:03:28.317Z,9.60
2023-01-11T04:05:56.191Z,9.60
2023-01-11T04:08:22.793Z,9.60
2023-01-11T04:10:49.436Z,9.70
2023-01-11T04:13:16.027Z,9.70
2023-01-11T04:15:42.675Z,9.70
2023-01-11T04:18:09.305Z,9.70
2023-01-11T04:20:40.328Z,9.70
2023-01-11T04:23:09.887Z,9.70
2023-01-11T04:25:36.721Z,9.70
2023-01-11T04:28:03.333Z,9.70
2023-01-11T04:30:29.987Z,9.80
2023-01-11T04:32:59.776Z,9.80
2023-01-11T04:35:26.761Z,9.80
2023-01-11T04:37:55.018Z,9.80
2023-01-11T04:40:21.801Z,9.80
2023-01-11T04:42:48.439Z,9.80
2023-01-11T04:45:15.308Z,9.80
2023-01-11T04:47:41.955Z,9.80
2023-01-11T04:50:09.192Z,9.80
2023-01-11T04:52:35.878Z,9.80
2023-01-11T04:55:02.571Z,9.80
2023-01-11T04:57:29.169Z,9.80
2023-01-11T04:59:55.876Z,9.80
2023-01-11T05:02:22.518Z,9.80
2023-01-11T05:04:49.139Z,9.80
2023-01-11T05:07:15.785Z,9.80
2023-01-11T05:09:42.479Z,9.80
2023-01-11T05:12:09.176Z,9.80
2023-01-11T05:14:35.849Z,9.80
2023-01-11T05:17:02.458Z,9.80
2023-01-11T05:19:29.074Z,9.80
2023-01-11T05:21:55.624Z,9.70
2023-01-11T05:24:22.231Z,9.80
2023-01-11T05:26:50.163Z,9.80
2023-01-11T05:29:16.845Z,9.80
2023-01-11T05:31:43.583Z,9.80
2023-01-11T05:34:12.562Z,9.80
2023-01-11T05:36:39.486Z,9.80
2023-01-11T05:39:06.825Z,9.80
2023-01-11T05:41:33.913Z,9.90
2023-01-11T05:44:19.558Z,9.90
2023-01-11T05:46:46.301Z,9.90
2023-01-11T05:49:14.158Z,9.90
2023-01-11T05:51:42.065Z,9.90
2023-01-11T05:54:12.521Z,10.00
2023-01-11T05:56:39.665Z,10.00
2023-01-11T05:59:07.096Z,10.00
2023-01-11T06:01:34.005Z,10.10
2023-01-11T06:04:01.092Z,10.10
2023-01-11T06:06:27.782Z,10.10
2023-01-11T06:08:54.474Z,10.10
2023-01-11T06:11:21.136Z,10.20
2023-01-11T06:13:47.789Z,10.20
2023-01-11T06:16:17.578Z,10.20
2023-01-11T06:18:47.489Z,10.20
2023-01-11T06:21:15.638Z,10.20
2023-01-11T06:23:45.045Z,10.20
2023-01-11T06:26:15.576Z,10.20
2023-01-11T06:28:43.092Z,10.30
2023-01-11T06:31:09.976Z,10.30
2023-01-11T06:33:37.217Z,10.30
2023-01-11T06:36:09.129Z,10.30
2023-01-11T06:38:37.099Z,10.30
2023-01-11T06:41:05.298Z,10.30
2023-01-11T06:43:32.924Z,10.40
2023-01-11T06:46:00.293Z,10.40
2023-01-11T06:48:27.619Z,10.40
2023-01-11T06:50:56.816Z,10.40
2023-01-11T06:53:28.111Z,10.40
2023-01-11T06:55:57.754Z,10.40
2023-01-11T06:58:25.595Z,10.40
2023-01-11T07:00:53.632Z,10.50
2023-01-11T07:03:21.194Z,10.50
2023-01-11T07:05:48.453Z,10.50
2023-01-11T07:08:15.296Z,10.60
2023-01-11T07:10:43.710Z,10.60
2023-01-11T07:13:11.663Z,10.60
2023-01-11T07:15:39.182Z,10.70
2023-01-11T07:18:05.922Z,10.70
2023-01-11T07:20:32.566Z,10.70
2023-01-11T07:23:00.909Z,10.70
2023-01-11T07:25:30.809Z,10.80
2023-01-11T07:28:03.658Z,10.80
2023-01-11T07:30:34.416Z,10.80
2023-01-11T07:33:06.287Z,10.80
2023-01-11T07:35:33.099Z,10.80
2023-01-11T07:37:59.982Z,10.90
2023-01-11T07:40:26.635Z,10.90
2023-01-11T07:43:14.450Z,10.90
2023-01-11T07:45:47.849Z,11.00
2023-01-11T07:48:15.627Z,11.00
2023-01-11T07:50:44.728Z,11.00
2023-01-11T07:53:13.018Z,11.00
2023-01-11T07:55:40.616Z,11.00
2023-01-11T07:58:12.339Z,11.10
2023-01-11T08:00:40.815Z,11.10
2023-01-11T08:03:07.746Z,11.10
2023-01-11T08:05:34.692Z,11.20
2023-01-11T08:08:01.717Z,11.30
2023-01-11T08:10:28.372Z,11.30
2023-01-11T08:13:13.853Z,11.40
2023-01-11T08:15:42.648Z,11.40
2023-01-11T08:18:11.442Z,11.50
2023-01-11T08:20:39.053Z,11.50
2023-01-11T08:23:07.283Z,11.60
2023-01-11T08:25:34.375Z,11.60
2023-01-11T08:28:02.521Z,11.70
2023-01-11T08:30:29.994Z,11.70
2023-01-11T08:32:57.415Z,11.80
2023-01-11T08:35:25.470Z,11.80
2023-01-11T08:37:52.290Z,11.90
2023-01-11T08:40:19.799Z,11.90
2023-01-11T08:42:46.720Z,12.00
2023-01-11T08:45:13.387Z,12.00
2023-01-11T08:47:40.062Z,12.10
2023-01-11T08:50:08.236Z,12.10
2023-01-11T08:52:34.883Z,12.10
2023-01-11T08:55:01.564Z,12.20
2023-01-11T08:57:28.161Z,12.20
2023-01-11T08:59:54.867Z,12.20
2023-01-11T09:02:21.516Z,12.20
2023-01-11T09:04:48.136Z,12.30
2023-01-11T09:07:14.733Z,12.30
2023-01-11T09:09:41.356Z,12.30
2023-01-11T09:12:08.048Z,12.30
2023-01-11T09:14:34.751Z,12.40
2023-01-11T09:17:01.392Z,12.40
2023-01-11T09:19:28.084Z,12.40
2023-01-11T09:21:57.587Z,12.50
2023-01-11T09:24:24.227Z,12.50
2023-01-11T09:26:50.939Z,12.50
2023-01-11T09:29:19.037Z,12.50
2023-01-11T09:31:46.042Z,12.50
2023-01-11T09:34:13.222Z,12.60
2023-01-11T09:36:40.355Z,12.60
2023-01-11T09:39:11.570Z,12.60
2023-01-11T09:42:01.834Z,12.60
2023-01-11T09:44:29.755Z,12.60
2023-01-11T09:47:20.841Z,12.60
2023-01-11T09:49:56.202Z,12.50
2023-01-11T09:52:32.889Z,12.50
2023-01-11T09:55:01.118Z,12.50
2023-01-11T09:57:34.735Z,12.50
2023-01-11T10:00:14.971Z,12.50
2023-01-11T10:03:17.803Z,12.50
2023-01-11T10:06:06.767Z,12.50
2023-01-11T10:18:29.802Z,12.50
2023-01-11T10:18:37.309Z,12.60
2023-01-11T10:20:47.519Z,12.70
2023-01-11T10:23:24.920Z,12.70
2023-01-11T10:25:56.489Z,12.70
2023-01-11T10:28:31.160Z,12.70
2023-01-11T10:30:58.140Z,12.80
2023-01-11T10:34:02.765Z,12.80
2023-01-11T10:36:54.629Z,12.80
2023-01-11T10:40:11.631Z,12.80
2023-01-11T10:42:47.295Z,12.80
2023-01-11T10:45:27.438Z,12.70
2023-01-11T10:48:02.611Z,12.70
2023-01-11T10:50:58.832Z,12.60
2023-01-11T10:53:36.603Z,12.60
2023-01-11T10:56:30.303Z,12.60
2023-01-11T10:59:43.537Z,12.60
2023-01-11T11:02:31.277Z,12.60
2023-01-11T11:05:10.850Z,12.50
2023-01-11T11:07:50.877Z,12.50
2023-01-11T11:10:47.140Z,12.60
2023-01-11T11:13:43.423Z,12.60
2023-01-11T11:16:22.423Z,12.60
2023-01-11T11:18:55.622Z,12.60
2023-01-11T11:21:23.939Z,12.60
2023-01-11T11:24:19.164Z,12.60
2023-01-11T11:26:54.192Z,12.60
2023-01-11T11:29:29.144Z,12.60
2023-01-11T11:31:58.681Z,12.60
2023-01-11T11:34:27.418Z,12.60
2023-01-11T11:36:57.830Z,12.60
2023-01-11T11:39:30.216Z,12.60
2023-01-11T11:42:14.355Z,12.60
2023-01-11T11:44:41.007Z,12.60
2023-01-11T11:47:17.324Z,12.60
2023-01-11T11:49:44.256Z,12.60
2023-01-11T11:52:16.409Z,12.60
2023-01-11T11:54:53.350Z,12.60
2023-01-11T11:57:31.091Z,12.60
2023-01-11T12:00:29.392Z,12.60
2023-01-11T12:03:06.145Z,12.60
2023-01-11T12:05:33.229Z,12.60
2023-01-11T12:08:00.424Z,12.60
2023-01-11T12:10:30.082Z,12.60
2023-01-11T12:13:02.201Z,12.70
2023-01-11T12:15:31.508Z,12.70
2023-01-11T12:18:26.375Z,12.80
2023-01-11T12:20:53.653Z,12.80
2023-01-11T12:23:26.144Z,12.90
2023-01-11T12:26:14.932Z,12.90
2023-01-11T12:28:56.527Z,12.90
2023-01-11T12:31:33.507Z,12.90
2023-01-11T12:34:29.815Z,12.90
2023-01-11T12:37:11.906Z,12.90
2023-01-11T12:40:10.539Z,12.80
2023-01-11T12:43:08.662Z,12.90
2023-01-11T12:45:47.043Z,12.80
2023-01-11T12:48:37.700Z,12.80
2023-01-11T12:51:14.115Z,12.80
2023-01-11T12:53:59.651Z,12.80
2023-01-11T12:56:41.119Z,12.80
2023-01-11T12:59:19.575Z,12.80
2023-01-11T13:01:53.933Z,12.80
2023-01-11T13:04:46.009Z,12.90
2023-01-11T13:07:15.429Z,12.90
2023-01-11T13:10:04.055Z,12.90
2023-01-11T13:12:42.416Z,12.90
2023-01-11T13:15:26.998Z,12.90
2023-01-11T13:18:14.936Z,13.00
2023-01-11T13:21:01.116Z,13.00
2023-01-11T13:23:46.945Z,13.00
2023-01-11T13:26:19.455Z,13.00
2023-01-11T13:28:51.566Z,13.00
2023-01-11T13:31:19.423Z,13.00
2023-01-11T13:33:52.835Z,13.00
2023-01-11T13:36:23.976Z,13.10
2023-01-11T13:39:31.639Z,13.10
2023-01-11T13:42:03.323Z,13.10
2023-01-11T13:44:42.315Z,13.10
2023-01-11T13:47:27.004Z,13.10
2023-01-11T13:50:26.728Z,13.00
2023-01-11T13:53:15.544Z,13.00
2023-01-11T13:56:06.208Z,12.90
2023-01-11T13:58:50.911Z,12.90
2023-01-11T14:01:24.231Z,12.90
2023-01-11T14:03:55.734Z,12.90
2023-01-11T14:06:49.304Z,12.90
2023-01-11T14:09:27.341Z,12.90
2023-01-11T14:11:58.394Z,12.90
2023-01-11T14:14:48.116Z,12.90
2023-01-11T14:17:38.296Z,12.90
2023-01-11T14:20:26.328Z,12.90
2023-01-11T14:23:17.579Z,12.80
2023-01-11T14:26:09.078Z,12.80
2023-01-11T14:28:43.048Z,12.80
2023-01-11T14:31:39.946Z,12.70
2023-01-11T14:34:24.278Z,12.70
2023-01-11T14:37:08.815Z,12.70
2023-01-11T14:40:01.639Z,12.70
2023-01-11T14:42:50.997Z,12.70
2023-01-11T14:45:40.849Z,12.70
2023-01-11T14:48:26.584Z,12.70
2023-01-11T14:51:23.787Z,12.70
2023-01-11T14:54:16.556Z,12.70
2023-01-11T14:56:43.242Z,12.60
2023-01-11T14:59:31.233Z,12.60
2023-01-11T15:02:04.241Z,12.60
2023-01-11T15:04:59.047Z,12.50
2023-01-11T15:07:31.766Z,12.50
2023-01-11T15:10:04.460Z,12.50
2023-01-11T15:12:41.534Z,12.50
2023-01-11T15:15:18.480Z,12.50
2023-01-11T15:18:04.444Z,12.50
2023-01-11T15:20:33.467Z,12.40
2023-01-11T15:23:03.565Z,12.40
2023-01-11T15:25:34.005Z,12.40
2023-01-11T15:28:26.033Z,12.30
2023-01-11T15:30:52.991Z,12.30
2023-01-11T15:33:19.713Z,12.30
2023-01-11T15:35:55.390Z,12.30
2023-01-11T15:38:33.864Z,12.30
2023-01-11T15:41:22.552Z,12.20
2023-01-11T15:44:20.217Z,12.20
2023-01-11T15:47:07.581Z,12.10
2023-01-11T15:49:39.977Z,12.00
2023-01-11T15:52:50.153Z,11.90
2023-01-11T15:55:28.456Z,11.80
2023-01-11T15:58:03.943Z,11.70
2023-01-11T16:00:33.547Z,11.70
2023-01-11T16:03:24.311Z,11.70
2023-01-11T16:06:07.975Z,11.70
2023-01-11T16:08:50.009Z,11.60
2023-01-11T16:11:58.542Z,11.60
2023-01-11T16:15:03.287Z,11.60
2023-01-11T16:17:30.225Z,11.50
2023-01-11T16:19:57.092Z,11.40
2023-01-11T16:22:26.480Z,11.40
2023-01-11T16:24:57.459Z,11.40
2023-01-11T16:27:27.829Z,11.30
2023-01-11T16:29:55.112Z,11.30
2023-01-11T16:32:27.193Z,11.30
2023-01-11T16:34:55.611Z,11.20
2023-01-11T16:37:42.490Z,11.20
2023-01-11T16:40:38.113Z,11.20
2023-01-11T16:43:16.980Z,11.10
2023-01-11T16:45:46.936Z,11.10
2023-01-11T16:48:22.190Z,11.10
2023-01-11T16:51:05.825Z,11.10
2023-01-11T16:53:36.676Z,11.10
2023-01-11T16:56:23.716Z,11.10
2023-01-11T16:59:13.284Z,11.10
2023-01-11T17:02:03.533Z,11.20
2023-01-11T17:04:48.150Z,11.20
2023-01-11T17:07:26.660Z,11.20
2023-01-11T17:09:53.700Z,11.20
2023-01-11T17:12:25.987Z,11.20
2023-01-11T17:15:17.459Z,11.10
2023-01-11T17:17:44.192Z,11.20
2023-01-11T17:20:20.647Z,11.20
2023-01-11T17:22:50.029Z,11.20
2023-01-11T17:25:23.139Z,11.10
2023-01-11T17:27:58.693Z,11.10
2023-01-11T17:30:26.481Z,11.10
2023-01-11T17:32:55.210Z,11.10
2023-01-11T17:35:29.359Z,11.10
2023-01-11T17:37:59.418Z,11.00
2023-01-11T17:40:36.071Z,11.00
2023-01-11T17:43:42.305Z,10.90
2023-01-11T17:46:17.222Z,10.90
2023-01-11T17:48:52.072Z,10.80
2023-01-11T17:51:25.884Z,10.80
2023-01-11T17:53:52.957Z,10.80
2023-01-11T17:56:38.615Z,10.80
2023-01-11T17:59:11.394Z,10.80
2023-01-11T18:01:38.523Z,10.80
2023-01-11T18:04:05.579Z,10.70
2023-01-11T18:06:37.038Z,10.70
2023-01-11T18:09:06.587Z,10.70
2023-01-11T18:11:36.708Z,10.70
2023-01-11T18:14:16.463Z,10.60
2023-01-11T18:17:01.928Z,10.60
2023-01-11T18:19:41.334Z,10.70
2023-01-11T18:22:35.117Z,10.60
2023-01-11T18:25:16.290Z,10.60
2023-01-11T18:27:46.358Z,10.60
2023-01-11T18:30:30.998Z,10.50
2023-01-11T18:33:03.276Z,10.50
2023-01-11T18:35:30.445Z,10.50
2023-01-11T18:37:57.058Z,10.50
2023-01-11T18:40:23.669Z,10.40
2023-01-11T18:42:53.165Z,10.40
2023-01-11T18:45:20.273Z,10.40
2023-01-11T18:47:46.978Z,10.40
2023-01-11T18:50:13.925Z,10.40
2023-01-11T18:52:40.789Z,10.30
2023-01-11T18:55:09.920Z,10.30
2023-01-11T18:57:36.522Z,10.30
2023-01-11T19:00:04.347Z,10.30
2023-01-11T19:02:42.748Z,10.30
2023-01-11T19:05:15.842Z,10.30
2023-01-11T19:07:42.552Z,10.20
2023-01-11T19:10:10.760Z,10.20
2023-01-11T19:12:37.373Z,10.20
2023-01-11T19:15:04.229Z,10.20
2023-01-11T19:17:32.058Z,10.30
2023-01-11T19:19:58.675Z,10.30
2023-01-11T19:22:26.676Z,10.30
2023-01-11T19:24:54.657Z,10.20
2023-01-11T19:27:22.135Z,10.30
2023-01-11T19:29:49.029Z,10.20
2023-01-11T19:32:17.237Z,10.20
2023-01-11T19:34:43.911Z,10.20
2023-01-11T19:37:10.565Z,10.20
2023-01-11T19:39:37.224Z,10.10
2023-01-11T19:42:03.966Z,10.10
2023-01-11T19:44:32.793Z,10.10
2023-01-11T19:47:10.866Z,10.00
2023-01-11T19:49:39.121Z,10.10
2023-01-11T19:52:12.190Z,10.10
2023-01-11T19:54:43.175Z,10.10
2023-01-11T19:57:11.500Z,10.00
2023-01-11T19:59:38.215Z,10.00
2023-01-11T20:02:05.413Z,10.00
2023-01-11T20:04:32.816Z,10.00
2023-01-11T20:06:59.441Z,10.00
2023-01-11T20:09:26.141Z,10.00
2023-01-11T20:11:53.256Z,10.00
2023-01-11T20:14:20.272Z,10.10
2023-01-11T20:16:46.860Z,10.10
2023-01-11T20:19:13.564Z,10.10
2023-01-11T20:21:40.217Z,10.10
2023-01-11T20:24:07.080Z,10.00
2023-01-11T20:26:34.079Z,9.90
2023-01-11T20:29:01.899Z,9.90
2023-01-11T20:31:32.076Z,9.90
2023-01-11T20:33:59.875Z,9.80
2023-01-11T20:36:26.846Z,9.80
2023-01-11T20:38:54.916Z,9.80
2023-01-11T20:41:42.865Z,9.70
2023-01-11T20:44:10.411Z,9.60
2023-01-11T20:46:37.728Z,9.60
2023-01-11T20:49:05.990Z,9.50
2023-01-11T20:51:32.806Z,9.50
2023-01-11T20:53:59.715Z,9.40
2023-01-11T20:56:26.360Z,9.30
2023-01-11T20:58:53.033Z,9.30
2023-01-11T21:01:26.746Z,9.20
2023-01-11T21:03:54.950Z,9.20
2023-01-11T21:06:22.318Z,9.20
2023-01-11T21:08:48.940Z,9.20
2023-01-11T21:11:16.176Z,9.20
2023-01-11T21:13:42.820Z,9.20
2023-01-11T21:16:12.749Z,9.20
2023-01-11T21:18:43.377Z,9.20
2023-01-11T21:21:18.396Z,9.20
2023-01-11T21:23:46.543Z,9.20
2023-01-11T21:26:15.600Z,9.10
2023-01-11T21:28:43.145Z,9.10
2023-01-11T21:31:12.059Z,9.10
2023-01-11T21:33:39.293Z,9.10
2023-01-11T21:36:08.833Z,9.10
2023-01-11T21:38:35.783Z,9.10
2023-01-11T21:41:05.241Z,9.10
2023-01-11T21:43:31.982Z,9.20
2023-01-11T21:45:59.130Z,9.20
2023-01-11T21:48:26.218Z,9.10
2023-01-11T21:50:52.867Z,9.20
2023-01-11T21:53:19.616Z,9.20
2023-01-11T21:55:46.327Z,9.20
2023-01-11T21:58:13.232Z,9.30
2023-01-11T22:00:39.925Z,9.40
2023-01-11T22:03:07.072Z,9.40
2023-01-11T22:05:33.817Z,9.40
2023-01-11T22:08:00.410Z,9.50
2023-01-11T22:10:27.051Z,9.50
2023-01-11T22:12:53.680Z,9.50
2023-01-11T22:15:20.300Z,9.60
2023-01-11T22:17:46.934Z,9.50
2023-01-11T22:20:15.237Z,9.50
2023-01-11T22:22:41.886Z,9.40
2023-01-11T22:25:08.600Z,9.40
2023-01-11T22:27:35.344Z,9.30
2023-01-11T22:30:02.019Z,9.40
2023-01-11T22:32:31.530Z,9.40
2023-01-11T22:34:58.140Z,9.40
2023-01-11T22:37:24.772Z,9.40
2023-01-11T22:39:51.356Z,9.40
2023-01-11T22:42:17.955Z,9.40
2023-01-11T22:44:44.556Z,9.50
2023-01-11T22:47:11.186Z,9.50
2023-01-11T22:49:37.792Z,9.50
2023-01-11T22:52:06.527Z,9.60
2023-01-11T22:54:33.162Z,9.60
2023-01-11T22:56:59.794Z,9.70
2023-01-11T22:59:27.186Z,9.70
2023-01-11T23:01:53.825Z,9.70
2023-01-11T23:04:20.472Z,9.70
2023-01-11T23:06:47.202Z,9.70
2023-01-11T23:09:16.539Z,9.80
2023-01-11T23:12:02.332Z,9.80
2023-01-11T23:14:30.811Z,9.80
2023-01-11T23:17:07.384Z,9.80
2023-01-11T23:19:39.061Z,9.80
2023-01-11T23:22:06.859Z,9.80
2023-01-11T23:24:34.887Z,9.80
2023-01-11T23:27:01.502Z,9.80
2023-01-11T23:29:28.225Z,9.80
2023-01-11T23:31:54.893Z,9.80
2023-01-11T23:34:21.581Z,9.80
2023-01-11T23:36:48.163Z,9.80
2023-01-11T23:39:16.420Z,9.80
2023-01-11T23:42:02.007Z,9.90
2023-01-11T23:44:28.774Z,9.90
2023-01-11T23:47:14.641Z,9.80
2023-01-11T23:49:43.481Z,9.90
2023-01-11T23:52:10.166Z,9.80
2023-01-11T23:54:36.746Z,9.80
2023-01-11T23:57:03.810Z,9.90
2023-01-11T23:59:31.111Z,9.90
